Szeged, Hongarije

6:03 AM CEST op 30 juli 2015 (GMT +0200)
Szeged | | Change Station
CLOSE
Current Station
Luchthaven
Location: Szeged,
Geometrische hoogte: 272 ft
Nabije weerstations

Hoogte 272 ft 46.25 °N, 20.09 °E | Updated 18 minutes ago

Overcast
Geheel bewolkt
63 °F
Voelt als 63 °F
N
6
Wind Variabel Wind van noord

Vandaag
Hoog -- | Laag -- °F
--% Kans op neerslag
Gisteren
Hoog -- | Laag -- °F
Precip. -- inches
5:18 AM 8:13 PM
Wassende maan, 98% visible
Druk 29.89 inches
Zicht 5.0 mijlen
Wolken Licht bewolkt 3000 ft
Geheel bewolkt 8300 ft
Dauwpunt 61 °F
Vochtigheid 94%
Neerslag 0.00 inches
Dikte sneeuw Niet beschikbaar.
UV 0 van de 12
Pollen Niet beschikbaar.
Luchtkwaliteit Niet beschikbaar.
Flu Activity Niet beschikbaar.
METAR LHUD 300345Z 01005KT 8000 SCT030 OVC083 17/16 Q1012

More Conditions Fewer Conditions

Druk 29.89 inches
Zicht 5.0 mijlen
Wolken Licht bewolkt 3000 ft
Geheel bewolkt 8300 ft
Dauwpunt 61 °F
Vochtigheid 94%
Neerslag 0.00 inches
Dikte sneeuw Niet beschikbaar.
UV 0 van de 12
Pollen Niet beschikbaar.
Luchtkwaliteit Niet beschikbaar.
Flu Activity Niet beschikbaar.
METAR LHUD 300345Z 01005KT 8000 SCT030 OVC083 17/16 Q1012

More Conditions Fewer Conditions

10-Day Weather Forecast

×

Almanac

Astronomie

Jul. 30, 2015 Opkomst Ondergang
Werkelijke tijd
Burgerlijke schemering
Nautische schemering
Astronomische schemering
Maan
Golflengte van het zichtbare licht
Daglengte
Tomorrow will be .
, % of the Moon is Illuminated

Extremen vandaag

Country Highs Country Lows

Community

WunderPhotos

Upload Photos

1,842,293 foto’s ge-upload!

WunderBlogs® & News

Nearby

Luchtkwaliteit

  Luchtkwaliteit LK-index Verontreinigende stof
Not available.

Dikte sneeuw

Station Depth Geometrische hoogte

Aardbevingen

Stad Distance Mag. Time & Date
Minimum magnitude displayed is 2.5.

Watertemperatuur langs de kust

Plaats Temperatuur

Stations

Nabije weerstations

Locatie station Temp. Gevoelstemperatuur Dauwpunt Vochtigheid Wind Precip. Hoogte Geactualiseerd Type